EW7899 Weather Reports


Display with metric or nautical units.
time (UTC)temp
F
wind
direction
speed
MPH
gust
MPH
rain 1hr
in
rain 24hr
in
rain mn
in
humidity
%
barometer
mb
20201026204510 43 359 0.0 0.0 0.02 0.18 0.18 97 1015.8
20201026203224 43 359 0.0 0.0 0.02 0.17 0.17 97 1015.9
20201026201607 43 335 0.0 0.0 0.02 0.16 0.16 97 1016.0
20201026200157 43 335 0.0 0.0 0.02 0.16 0.16 97 1016.1
20201026194638 43 336 0.0 0.0 0.02 0.16 0.16 97 1016.1
20201026193130 43 335 1.0 4.0 0.01 0.15 0.15 97 1016.2
20201026191637 43 342 1.0 4.0 0.00 0.14 0.14 97 1016.0
20201026190125 43 347 0.0 2.0 0.00 0.14 0.14 97 1016.1
20201026184704 43 347 0.0 1.0 0.00 0.14 0.14 97 1016.3
20201026183107 43 347 0.0 1.0 0.01 0.14 0.14 97 1016.4
20201026181641 42 347 0.0 5.0 0.01 0.14 0.14 97 1016.8
20201026180121 42 341 1.0 5.0 0.02 0.14 0.14 97 1016.9
20201026174623 42 359 0.0 0.0 0.02 0.14 0.14 97 1017.1
20201026173034 42 336 0.0 0.0 0.02 0.13 0.13 97 1017.4
20201026171534 42 359 0.0 1.0 0.02 0.13 0.13 97 1017.6
20201026170029 42 336 0.0 4.0 0.02 0.12 0.12 96 1017.8
20201026164540 41 335 0.0 2.0 0.02 0.12 0.12 96 1017.8
20201026163026 41 359 2.0 5.0 0.02 0.11 0.11 96 1018.1
20201026161527 41 342 3.0 5.0 0.04 0.11 0.11 97 1018.1
20201026160020 41 332 0.0 2.0 0.06 0.10 0.10 97 1018.2
20201026154510 40 334 0.0 2.0 0.06 0.10 0.10 97 1018.6
20201026153221 40 39 0.0 5.0 0.05 0.09 0.09 97 1018.7
20201026151624 40 4 0.0 4.0 0.03 0.07 0.07 97 1018.6
20201026150133 40 359 1.0 5.0 0.00 0.04 0.04 97 1019.0
20201026144704 39 337 1.0 4.0 0.01 0.04 0.04 97 1019.3
20201026143058 39 359 0.0 0.0 0.01 0.04 0.04 97 1019.9
20201026141642 38 328 0.0 4.0 0.01 0.04 0.04 97 1019.8
20201026140102 38 342 0.0 4.0 0.01 0.04 0.04 97 1020.1
20201026134620 37 338 0.0 2.0 0.00 0.03 0.03 97 1020.5
20201026133059 37 307 0.0 2.0 0.01 0.03 0.03 97 1020.8
20201026131643 37 312 0.0 2.0 0.01 0.03 0.03 97 1021.2
20201026130053 36 359 0.0 1.0 0.01 0.03 0.03 97 1021.1
20201026124528 36 115 0.0 0.0 0.01 0.03 0.03 97 1021.3
20201026123035 35 115 0.0 0.0 0.01 0.02 0.02 96 1021.4
20201026121553 35 114 0.0 1.0 0.01 0.02 0.02 96 1021.6
20201026120033 35 116 0.0 0.0 0.01 0.02 0.02 96 1021.6
20201026114521 34 115 0.0 2.0 0.02 0.02 0.02 96 1021.8
20201026113023 34 114 0.0 2.0 0.01 0.01 0.01 95 1022.0
20201026111711 34 70 0.0 1.0 0.01 0.01 0.01 95 1022.0
20201026110356 33 72 0.0 1.0 0.01 0.01 0.01 94 1022.4
20201026104622 34 72 0.0 1.0 0.00 0.00 0.00 92 1022.3
20201026103215 34 104 0.0 0.0 0.00 0.00 0.00 89 1022.6
20201026101648 34 104 0.0 2.0 0.00 0.00 0.00 86 1022.7
20201026100126 34 102 0.0 1.0 0.00 0.00 0.00 86 1022.6
20201026094634 34 104 0.0 0.0 0.00 0.00 0.00 85 1022.6
20201026093049 34 103 0.0 2.0 0.00 0.00 0.00 86 1022.7
20201026091600 33 103 0.0 0.0 0.00 0.00 0.00 85 1022.6
20201026090139 33 102 0.0 0.0 0.00 0.00 0.00 84 1022.9
20201026084611 33 102 0.0 0.0 0.00 0.00 0.00 84 1023.1
20201026083059 33 102 0.0 0.0 0.00 0.00 0.00 85 1023.0
20201026081557 33 103 0.0 1.0 0.00 0.00 0.00 83 1023.2
20201026080046 33 103 0.0 0.0 0.00 0.00 0.00 83 1023.4
20201026074538 33 104 0.0 0.0 0.00 0.00 0.00 82 1023.5
20201026073107 33 103 0.0 0.0 0.00 0.00 0.00 83 1023.5
20201026071543 33 103 0.0 0.0 0.00 0.00 0.00 84 1023.5
20201026070046 32 103 0.0 0.0 0.00 0.00 0.00 83 1023.5
20201026064546 32 103 0.0 0.0 0.00 0.00 0.00 84 1023.4
20201026063052 32 102 0.0 0.0 0.00 0.00 0.00 84 1023.5
20201026061520 32 103 0.0 0.0 0.00 0.00 0.00 84 1024.0
20201026060019 32 102 0.0 0.0 0.00 0.00 0.00 84 1024.0
20201026054654 32 104 0.0 0.0 0.00 0.00 0.00 84 1024.1
20201026053215 31 103 0.0 0.0 0.00 0.00 0.00 83 1024.0
20201026051713 31 102 0.0 1.0 0.00 0.00 0.00 84 1024.2
20201026050139 31 103 0.0 1.0 0.00 0.00 0.00 84 1024.4
20201026044557 30 104 0.0 1.0 0.00 0.00 0.00 84 1024.8
20201026043134 30 102 0.0 0.0 0.00 0.00 0.00 85 1024.7
20201026041659 30 103 0.0 0.0 0.00 0.00 0.00 84 1025.0
20201026040101 29 102 0.0 0.0 0.00 0.00 0.00 85 1025.3
20201026034605 29 103 0.0 0.0 0.00 0.00 0.00 86 1025.4
20201026033144 28 102 0.0 0.0 0.00 0.00 0.00 85 1025.5
20201026031541 28 104 0.0 0.0 0.00 0.00 0.00 83 1025.7
20201026030049 28 102 0.0 0.0 0.00 0.00 0.00 83 1025.8
20201026024554 28 103 0.0 1.0 0.00 0.00 0.00 83 1026.1
20201026023125 28 103 0.0 0.0 0.00 0.00 0.00 82 1026.0
20201026021529 28 104 0.0 0.0 0.00 0.00 0.00 81 1026.0
20201026020029 28 102 0.0 0.0 0.00 0.00 0.00 81 1026.3
20201026014519 29 102 0.0 2.0 0.00 0.00 0.00 80 1026.2
20201026013020 29 102 0.0 0.0 0.00 0.00 0.00 81 1026.2
20201026011517 30 102 0.0 0.0 0.00 0.00 0.00 80 1026.1
20201026010136 30 102 0.0 0.0 0.00 0.00 0.00 79 1026.0
20201026004627 31 102 0.0 1.0 0.00 0.00 0.00 78 1026.3
20201026003203 32 102 0.0 0.0 0.00 0.00 0.00 77 1026.3
20201026001636 33 102 0.0 0.0 0.00 0.00 0.00 75 1026.3
20201026000102 34 102 0.0 0.0 0.00 0.00 0.00 73 1026.3
20201025234612 34 102 0.0 0.0 0.00 0.00 0.00 70 1026.4
20201025233141 35 102 0.0 1.0 0.00 0.00 0.00 72 1026.2
20201025231643 36 102 0.0 1.0 0.00 0.00 0.00 68 1026.1
20201025230057 36 101 0.0 2.0 0.00 0.00 0.00 69 1025.9
20201025224634 36 100 0.0 2.0 0.00 0.00 0.00 68 1026.1
20201025223118 37 99 0.0 1.0 0.00 0.00 0.00 67 1026.2
20201025221615 37 99 0.0 4.0 0.00 0.00 0.00 63 1026.2
20201025220210 38 97 2.0 6.0 0.00 0.00 0.00 61 1026.1
20201025214622 38 104 3.0 7.0 0.00 0.00 0.00 60 1026.0
20201025213204 38 84 3.0 9.0 0.00 0.00 0.00 56 1026.0
20201025211637 39 107 2.0 7.0 0.00 0.00 0.00 57 1025.9
20201025210122 39 97 2.0 9.0 0.00 0.00 0.00 59 1025.9